createdAt,value
2017-09-18T00:01:20.607Z,16.50
2017-09-18T00:03:48.062Z,15.00
2017-09-18T00:06:15.521Z,18.77
2017-09-18T00:08:43.388Z,14.33
2017-09-18T00:11:10.800Z,14.47
2017-09-18T00:13:38.221Z,17.30
2017-09-18T00:16:05.649Z,16.83
2017-09-18T00:18:33.121Z,14.50
2017-09-18T00:21:00.537Z,18.23
2017-09-18T00:23:28.708Z,13.70
2017-09-18T00:25:56.911Z,20.10
2017-09-18T00:28:24.324Z,14.93
2017-09-18T00:30:52.126Z,14.70
2017-09-18T00:33:19.534Z,13.43
2017-09-18T00:35:47.771Z,11.50
2017-09-18T00:38:15.219Z,13.47
2017-09-18T00:40:42.637Z,14.53
2017-09-18T00:43:10.846Z,16.20
2017-09-18T00:45:38.260Z,12.37
2017-09-18T00:48:05.667Z,13.20
2017-09-18T00:50:33.089Z,17.30
2017-09-18T00:53:01.272Z,12.10
2017-09-18T00:55:29.440Z,12.17
2017-09-18T00:57:57.326Z,14.20
2017-09-18T01:00:24.738Z,16.47
2017-09-18T01:02:52.924Z,11.87
2017-09-18T01:05:21.136Z,10.73
2017-09-18T01:07:48.546Z,11.43
2017-09-18T01:10:16.729Z,10.30
2017-09-18T01:12:44.903Z,12.13
2017-09-18T01:15:13.125Z,9.13
2017-09-18T01:17:40.571Z,7.97
2017-09-18T01:20:08.024Z,11.30
2017-09-18T01:22:35.438Z,11.07
2017-09-18T01:25:03.608Z,9.37
2017-09-18T01:27:31.358Z,10.00
2017-09-18T01:29:59.171Z,9.33
2017-09-18T01:32:27.039Z,11.73
2017-09-18T01:34:54.446Z,8.93
2017-09-18T01:37:21.850Z,10.90
2017-09-18T01:39:49.260Z,10.17
2017-09-18T01:42:16.667Z,7.97
2017-09-18T01:44:44.071Z,8.93
2017-09-18T01:47:11.579Z,9.23
2017-09-18T01:49:38.994Z,9.13
2017-09-18T01:52:06.486Z,8.03
2017-09-18T01:54:33.891Z,8.23
2017-09-18T01:57:01.307Z,7.50
2017-09-18T01:59:28.715Z,7.13
2017-09-18T02:01:56.219Z,10.93
2017-09-18T02:04:23.670Z,8.40
2017-09-18T02:06:51.080Z,13.10
2017-09-18T02:09:19.299Z,10.90
2017-09-18T02:11:46.959Z,10.00
2017-09-18T02:14:14.423Z,6.70
2017-09-18T02:16:41.834Z,11.20
2017-09-18T02:19:10.051Z,10.60
2017-09-18T02:21:37.496Z,8.20
2017-09-18T02:24:04.903Z,6.67
2017-09-18T02:26:32.311Z,9.07
2017-09-18T02:28:59.725Z,9.80
2017-09-18T02:31:27.243Z,11.80
2017-09-18T02:33:54.650Z,8.13
2017-09-18T02:36:22.819Z,8.20
2017-09-18T02:38:51.147Z,9.93
2017-09-18T02:41:18.590Z,8.57
2017-09-18T02:43:46.003Z,9.80
2017-09-18T02:46:13.509Z,8.10
2017-09-18T02:48:40.968Z,7.90
2017-09-18T02:51:08.427Z,7.67
2017-09-18T02:53:35.824Z,8.17
2017-09-18T02:56:03.218Z,6.53
2017-09-18T02:58:30.631Z,7.20
2017-09-18T03:00:58.038Z,12.30
2017-09-18T03:03:25.453Z,9.50
2017-09-18T03:05:52.859Z,10.97
2017-09-18T03:08:20.274Z,8.47
2017-09-18T03:10:48.446Z,8.23
2017-09-18T03:13:16.627Z,11.40
2017-09-18T03:15:44.832Z,6.93
2017-09-18T03:18:12.286Z,11.83
2017-09-18T03:20:39.701Z,13.53
2017-09-18T03:23:07.875Z,9.87
2017-09-18T03:25:36.091Z,10.80
2017-09-18T03:28:04.059Z,7.47
2017-09-18T03:30:31.831Z,10.03
2017-09-18T03:32:59.243Z,9.87
2017-09-18T03:35:27.430Z,10.97
2017-09-18T03:37:54.835Z,9.47
2017-09-18T03:40:22.831Z,8.97
2017-09-18T03:42:51.003Z,9.57
2017-09-18T03:45:19.190Z,10.07
2017-09-18T03:47:47.606Z,8.00
2017-09-18T03:50:15.022Z,8.40
2017-09-18T03:52:43.200Z,10.93
2017-09-18T03:55:11.376Z,11.63
2017-09-18T03:57:41.019Z,13.00
2017-09-18T04:00:08.419Z,8.50
2017-09-18T04:02:36.619Z,13.47
2017-09-18T04:05:04.094Z,11.33
2017-09-18T04:07:31.557Z,8.10
2017-09-18T04:09:58.979Z,11.47
2017-09-18T04:12:27.161Z,8.17
2017-09-18T04:14:55.331Z,9.10
2017-09-18T04:17:23.503Z,7.67
2017-09-18T04:19:51.706Z,8.07
2017-09-18T04:22:19.107Z,8.63
2017-09-18T04:24:47.874Z,7.80
2017-09-18T04:27:15.282Z,9.63
2017-09-18T04:29:42.700Z,8.00
2017-09-18T04:32:10.112Z,9.03
2017-09-18T04:34:37.578Z,9.20
2017-09-18T04:37:05.002Z,10.27
2017-09-18T04:39:33.209Z,7.90
2017-09-18T04:42:00.603Z,8.20
2017-09-18T04:44:28.020Z,8.33
2017-09-18T04:46:55.428Z,10.80
2017-09-18T04:49:23.603Z,7.10
2017-09-18T04:51:51.775Z,9.80
2017-09-18T04:54:19.947Z,8.43
2017-09-18T04:56:48.135Z,9.63
2017-09-18T04:59:16.307Z,11.57
2017-09-18T05:01:44.488Z,14.47
2017-09-18T05:04:12.694Z,12.60
2017-09-18T05:06:40.134Z,9.37
2017-09-18T05:09:07.995Z,22.57
2017-09-18T05:11:35.668Z,11.23
2017-09-18T05:14:03.130Z,8.10
2017-09-18T05:16:30.535Z,46.23
2017-09-18T05:18:58.710Z,12.87
2017-09-18T05:21:26.891Z,12.43
2017-09-18T05:23:55.087Z,13.57
2017-09-18T05:26:22.502Z,20.37
2017-09-18T05:28:50.022Z,11.20
2017-09-18T05:31:17.503Z,12.40
2017-09-18T05:33:44.899Z,11.40
2017-09-18T05:36:13.100Z,12.97
2017-09-18T05:38:40.506Z,13.30
2017-09-18T05:41:08.310Z,11.73
2017-09-18T05:43:35.728Z,10.40
2017-09-18T05:46:03.235Z,11.17
2017-09-18T05:48:31.747Z,11.10
2017-09-18T05:50:59.159Z,11.50
2017-09-18T05:53:26.623Z,10.30
2017-09-18T05:55:54.587Z,13.60
2017-09-18T05:58:21.999Z,15.13
2017-09-18T06:00:49.414Z,15.23
2017-09-18T06:03:16.836Z,16.13
2017-09-18T06:05:44.430Z,12.67
2017-09-18T06:08:11.875Z,11.10
2017-09-18T06:10:39.335Z,16.30
2017-09-18T06:13:06.746Z,12.77
2017-09-18T06:15:34.242Z,15.20
2017-09-18T06:18:01.698Z,11.17
2017-09-18T06:20:29.132Z,15.37
2017-09-18T06:22:57.335Z,14.27
2017-09-18T06:25:24.750Z,20.87
2017-09-18T06:27:52.152Z,16.97
2017-09-18T06:30:19.600Z,14.10
2017-09-18T06:32:47.027Z,15.10
2017-09-18T06:35:15.213Z,19.30
2017-09-18T06:37:42.639Z,13.80
2017-09-18T06:40:10.049Z,13.47
2017-09-18T06:42:37.499Z,11.53
2017-09-18T06:45:04.927Z,13.90
2017-09-18T06:47:33.108Z,14.20
2017-09-18T06:50:00.587Z,13.53
2017-09-18T06:52:28.004Z,13.20
2017-09-18T06:54:56.223Z,15.40
2017-09-18T06:57:23.653Z,31.60
2017-09-18T06:59:51.842Z,18.60
2017-09-18T07:02:19.259Z,16.60
2017-09-18T07:04:47.480Z,20.40
2017-09-18T07:07:14.903Z,16.90
2017-09-18T07:09:42.316Z,13.60
2017-09-18T07:12:09.732Z,13.73
2017-09-18T07:14:37.339Z,15.40
2017-09-18T07:17:04.875Z,11.90
2017-09-18T07:19:32.286Z,17.67
2017-09-18T07:22:00.503Z,15.50
2017-09-18T07:24:27.953Z,16.20
2017-09-18T07:26:55.363Z,12.70
2017-09-18T07:29:22.871Z,12.97
2017-09-18T07:31:50.329Z,15.63
2017-09-18T07:34:17.723Z,14.67
2017-09-18T07:36:45.139Z,14.37
2017-09-18T07:39:12.600Z,19.03
2017-09-18T07:41:40.056Z,28.03
2017-09-18T07:44:07.507Z,13.70
2017-09-18T07:46:34.965Z,13.77
2017-09-18T07:49:02.371Z,15.20
2017-09-18T07:51:31.084Z,11.50
2017-09-18T07:53:58.501Z,12.43
2017-09-18T07:56:27.428Z,17.00
2017-09-18T07:58:54.910Z,22.57
2017-09-18T08:01:22.354Z,16.77
2017-09-18T08:03:49.771Z,15.63
2017-09-18T08:06:17.987Z,13.40
2017-09-18T08:08:45.403Z,14.90
2017-09-18T08:11:13.601Z,20.30
2017-09-18T08:13:41.598Z,15.70
2017-09-18T08:16:09.031Z,13.33
2017-09-18T08:18:37.222Z,13.80
2017-09-18T08:21:04.620Z,14.03
2017-09-18T08:23:32.047Z,11.57
2017-09-18T08:25:59.467Z,14.73
2017-09-18T08:28:26.934Z,14.23
2017-09-18T08:30:54.342Z,12.37
2017-09-18T08:33:21.856Z,11.20
2017-09-18T08:35:49.314Z,10.80
2017-09-18T08:38:16.702Z,12.77
2017-09-18T08:40:44.735Z,10.70
2017-09-18T08:43:12.146Z,12.30
2017-09-18T08:45:40.346Z,15.00
2017-09-18T08:48:07.817Z,10.40
2017-09-18T08:50:35.234Z,12.60
2017-09-18T08:53:03.421Z,9.47
2017-09-18T08:55:30.840Z,13.33
2017-09-18T08:57:58.267Z,10.03
2017-09-18T09:00:25.675Z,11.33
2017-09-18T09:02:53.854Z,10.80
2017-09-18T09:05:22.104Z,12.07
2017-09-18T09:07:49.520Z,15.70
2017-09-18T09:10:16.989Z,14.53
2017-09-18T09:12:44.429Z,17.20
2017-09-18T09:15:12.606Z,17.63
2017-09-18T09:17:40.067Z,17.90
2017-09-18T09:20:07.479Z,15.83
2017-09-18T09:22:35.659Z,18.70
2017-09-18T09:25:03.862Z,15.67
2017-09-18T09:27:31.279Z,19.30
2017-09-18T09:29:59.810Z,18.23
2017-09-18T09:32:27.219Z,19.07
2017-09-18T09:34:55.434Z,19.10
2017-09-18T09:37:22.847Z,17.30
2017-09-18T09:39:51.075Z,23.03
2017-09-18T09:42:18.487Z,25.90
2017-09-18T09:44:46.671Z,28.00
2017-09-18T09:47:14.849Z,24.73
2017-09-18T09:49:42.267Z,20.10
2017-09-18T09:52:10.401Z,23.07
2017-09-18T09:54:37.857Z,25.30
2017-09-18T09:57:05.312Z,28.60
2017-09-18T09:59:32.717Z,30.50
2017-09-18T10:02:00.336Z,30.20
2017-09-18T10:04:27.730Z,30.00
2017-09-18T10:06:56.689Z,27.00
2017-09-18T10:09:24.100Z,26.43
2017-09-18T10:11:52.287Z,26.60
2017-09-18T10:14:19.763Z,26.30
2017-09-18T10:16:47.189Z,25.13
2017-09-18T10:19:15.355Z,25.37
2017-09-18T10:21:43.578Z,21.53
2017-09-18T10:24:10.987Z,27.17
2017-09-18T10:26:39.178Z,24.53
2017-09-18T10:29:06.597Z,20.90
2017-09-18T10:31:34.008Z,20.10
2017-09-18T10:34:01.446Z,20.80
2017-09-18T10:36:29.642Z,19.40
2017-09-18T10:38:57.505Z,20.47
2017-09-18T10:41:24.918Z,22.03
2017-09-18T10:43:52.936Z,23.83
2017-09-18T10:46:20.352Z,25.63
2017-09-18T10:48:48.530Z,20.03
2017-09-18T10:51:16.726Z,24.40
2017-09-18T10:53:44.927Z,22.60
2017-09-18T10:56:12.412Z,21.97
2017-09-18T10:58:39.821Z,19.83
2017-09-18T11:01:07.509Z,19.00
2017-09-18T11:03:34.985Z,21.23
2017-09-18T11:06:02.401Z,19.67
2017-09-18T11:08:29.801Z,23.50
2017-09-18T11:10:57.431Z,22.10
2017-09-18T11:13:24.867Z,21.03
2017-09-18T11:15:52.326Z,22.83
2017-09-18T11:18:20.691Z,30.83
2017-09-18T11:20:48.110Z,23.83
2017-09-18T11:23:15.614Z,22.30
2017-09-18T11:25:43.069Z,25.47
2017-09-18T11:28:11.253Z,22.80
2017-09-18T11:30:38.672Z,17.77
2017-09-18T11:33:06.156Z,14.40
2017-09-18T11:35:33.621Z,17.73
2017-09-18T11:38:01.034Z,18.47
2017-09-18T11:40:29.219Z,14.50
2017-09-18T11:42:56.647Z,20.43
2017-09-18T11:45:24.067Z,15.27
2017-09-18T11:47:52.042Z,15.10
2017-09-18T11:50:19.467Z,18.33
2017-09-18T11:52:47.483Z,14.30
2017-09-18T11:55:15.522Z,11.93
2017-09-18T11:57:43.287Z,10.23
2017-09-18T12:00:10.688Z,10.07
2017-09-18T12:02:38.104Z,12.30
2017-09-18T12:05:05.548Z,11.90
2017-09-18T12:07:32.977Z,11.50
2017-09-18T12:10:00.463Z,11.77
2017-09-18T12:12:27.880Z,10.20
2017-09-18T12:14:56.088Z,11.60
2017-09-18T12:17:23.511Z,13.77
2017-09-18T12:19:51.691Z,11.80
2017-09-18T12:22:19.899Z,12.73
2017-09-18T12:24:47.319Z,13.13
2017-09-18T12:27:15.514Z,12.37
2017-09-18T12:29:42.927Z,10.57
2017-09-18T12:32:10.335Z,12.90
2017-09-18T12:34:37.790Z,13.30
2017-09-18T12:37:05.214Z,11.23
2017-09-18T12:39:33.387Z,12.83
2017-09-18T12:42:02.107Z,10.83
2017-09-18T12:44:29.519Z,11.13
2017-09-18T12:46:57.691Z,9.33
2017-09-18T12:49:25.951Z,9.50
2017-09-18T12:51:53.361Z,8.53
2017-09-18T12:54:20.790Z,12.10
2017-09-18T12:56:48.970Z,9.20
2017-09-18T12:59:17.173Z,10.37
2017-09-18T13:01:44.579Z,10.80
2017-09-18T13:04:12.829Z,11.70
2017-09-18T13:06:40.247Z,12.43
2017-09-18T13:09:07.738Z,13.30
2017-09-18T13:11:35.178Z,14.03
2017-09-18T13:14:02.588Z,17.63
2017-09-18T13:16:30.799Z,13.03
2017-09-18T13:18:58.968Z,16.20
2017-09-18T13:21:26.387Z,19.00
2017-09-18T13:23:54.599Z,17.30
2017-09-18T13:26:22.033Z,13.87
2017-09-18T13:28:50.212Z,18.57
2017-09-18T13:31:17.635Z,15.73
2017-09-18T13:33:45.059Z,12.60
2017-09-18T13:36:12.482Z,12.73
2017-09-18T13:41:10.348Z,16.57
2017-09-18T13:43:38.544Z,15.27
2017-09-18T13:46:06.228Z,17.50
2017-09-18T13:48:33.917Z,21.70
2017-09-18T13:51:01.361Z,21.23
2017-09-18T13:53:28.788Z,20.00
2017-09-18T13:55:56.244Z,18.03
2017-09-18T13:58:23.716Z,19.87
2017-09-18T14:00:51.147Z,22.20
2017-09-18T14:03:18.564Z,22.87
2017-09-18T14:05:46.002Z,18.00
2017-09-18T14:08:13.468Z,27.80
2017-09-18T14:10:40.884Z,20.30
2017-09-18T14:13:09.100Z,17.30
2017-09-18T14:15:37.321Z,17.97
2017-09-18T14:18:04.763Z,10.30
2017-09-18T14:20:32.570Z,12.90
2017-09-18T14:22:59.975Z,6.50
2017-09-18T14:25:46.244Z,7.20
2017-09-18T14:28:13.657Z,7.87
2017-09-18T14:30:41.712Z,9.10
2017-09-18T14:33:09.161Z,10.43
2017-09-18T14:35:36.571Z,9.37
2017-09-18T14:38:04.076Z,9.00
2017-09-18T14:40:33.278Z,8.83
2017-09-18T14:43:00.760Z,7.50
2017-09-18T14:45:28.968Z,9.20
2017-09-18T14:47:56.378Z,7.77
2017-09-18T14:50:23.837Z,7.17
2017-09-18T14:52:51.289Z,11.10
2017-09-18T14:55:20.224Z,16.27
2017-09-18T14:57:48.070Z,8.20
2017-09-18T15:00:15.542Z,6.40
2017-09-18T15:02:43.012Z,7.67
2017-09-18T15:05:10.454Z,11.40
2017-09-18T15:07:37.935Z,10.63
2017-09-18T15:10:05.516Z,10.23
2017-09-18T15:12:34.491Z,7.50
2017-09-18T15:15:02.347Z,11.87
2017-09-18T15:17:30.567Z,9.57
2017-09-18T15:19:57.979Z,10.83
2017-09-18T15:22:25.389Z,10.07
2017-09-18T15:24:52.836Z,15.73
2017-09-18T15:27:20.246Z,14.50
2017-09-18T15:29:47.755Z,14.60
2017-09-18T15:32:15.163Z,16.73
2017-09-18T15:34:43.343Z,22.23
2017-09-18T15:37:11.519Z,15.10
2017-09-18T15:39:39.699Z,10.87
2017-09-18T15:42:07.193Z,11.10
2017-09-18T15:44:34.593Z,15.20
2017-09-18T15:47:02.087Z,13.63
2017-09-18T15:49:29.503Z,19.30
2017-09-18T15:51:56.912Z,18.60
2017-09-18T15:54:24.461Z,16.77
2017-09-18T15:56:52.650Z,11.30
2017-09-18T15:59:20.163Z,15.23
2017-09-18T16:01:47.582Z,16.40
2017-09-18T16:04:15.227Z,13.03
2017-09-18T16:06:42.706Z,20.50
2017-09-18T16:09:10.186Z,8.07
2017-09-18T16:11:37.635Z,8.40
2017-09-18T16:14:05.056Z,7.40
2017-09-18T16:16:32.567Z,8.73
2017-09-18T16:18:59.968Z,13.10
2017-09-18T16:21:27.470Z,11.17
2017-09-18T16:23:54.924Z,12.43
2017-09-18T16:26:22.396Z,12.57
2017-09-18T16:28:49.959Z,12.17
2017-09-18T16:31:18.174Z,11.70
2017-09-18T16:33:45.685Z,11.33
2017-09-18T16:36:13.260Z,11.57
2017-09-18T16:38:41.448Z,9.10
2017-09-18T16:41:08.896Z,14.80
2017-09-18T16:43:36.688Z,9.77
2017-09-18T16:46:04.163Z,15.00
2017-09-18T16:48:31.656Z,11.83
2017-09-18T16:50:59.864Z,12.20
2017-09-18T16:53:27.323Z,6.53
2017-09-18T16:55:54.747Z,9.10
2017-09-18T16:58:22.166Z,10.03
2017-09-18T17:00:49.579Z,10.43
2017-09-18T17:03:17.003Z,11.43
2017-09-18T17:05:45.177Z,9.37
2017-09-18T17:08:13.355Z,8.20
2017-09-18T17:10:41.560Z,13.43
2017-09-18T17:13:09.003Z,8.50
2017-09-18T17:15:37.803Z,8.80
2017-09-18T17:18:05.246Z,9.70
2017-09-18T17:20:32.941Z,10.60
2017-09-18T17:23:00.369Z,11.90
2017-09-18T17:25:27.782Z,13.77
2017-09-18T17:27:55.193Z,9.40
2017-09-18T17:30:22.605Z,11.97
2017-09-18T17:32:50.835Z,11.57
2017-09-18T17:35:18.263Z,11.17
2017-09-18T17:37:45.703Z,12.63
2017-09-18T17:40:13.180Z,14.50
2017-09-18T17:42:40.665Z,12.17
2017-09-18T17:45:08.120Z,12.73
2017-09-18T17:47:35.538Z,9.17
2017-09-18T17:50:03.754Z,12.00
2017-09-18T17:52:31.162Z,12.13
2017-09-18T17:54:59.473Z,11.37
2017-09-18T17:57:26.864Z,10.10
2017-09-18T17:59:54.380Z,10.33
2017-09-18T18:02:21.847Z,14.20
2017-09-18T18:04:49.260Z,7.67
2017-09-18T18:07:17.440Z,8.13
2017-09-18T18:09:45.134Z,11.60
2017-09-18T18:12:12.538Z,10.60
2017-09-18T18:14:39.963Z,10.43
2017-09-18T18:17:07.375Z,9.57
2017-09-18T18:19:34.798Z,9.33
2017-09-18T18:22:02.226Z,12.17
2017-09-18T18:24:29.639Z,10.50
2017-09-18T18:26:57.058Z,9.80
2017-09-18T18:29:25.984Z,11.90
2017-09-18T18:31:54.235Z,13.53
2017-09-18T18:34:21.753Z,8.23
2017-09-18T18:36:49.295Z,11.43
2017-09-18T18:39:17.505Z,10.70
2017-09-18T18:41:44.939Z,10.73
2017-09-18T18:44:12.348Z,16.13
2017-09-18T18:46:40.562Z,8.70
2017-09-18T18:49:08.036Z,11.23
2017-09-18T18:51:35.473Z,11.67
2017-09-18T18:54:02.989Z,11.70
2017-09-18T18:56:30.543Z,12.33
2017-09-18T18:58:57.968Z,11.90
2017-09-18T19:01:25.474Z,11.77
2017-09-18T19:03:52.893Z,9.57
2017-09-18T19:06:20.321Z,10.70
2017-09-18T19:08:47.805Z,8.83
2017-09-18T19:11:15.272Z,12.03
2017-09-18T19:13:42.711Z,9.70
2017-09-18T19:16:10.203Z,16.83
2017-09-18T19:18:37.630Z,9.03
2017-09-18T19:21:05.084Z,10.47
2017-09-18T19:23:32.475Z,7.77
2017-09-18T19:26:00.688Z,9.90
2017-09-18T19:28:28.136Z,9.63
2017-09-18T19:30:55.578Z,6.83
2017-09-18T19:33:23.030Z,8.90
2017-09-18T19:35:51.233Z,11.90
2017-09-18T19:38:18.674Z,14.60
2017-09-18T19:40:46.169Z,11.53
2017-09-18T19:43:14.360Z,9.53
2017-09-18T19:45:41.776Z,9.07
2017-09-18T19:48:09.220Z,12.83
2017-09-18T19:50:36.675Z,10.33
2017-09-18T19:53:04.167Z,11.03
2017-09-18T19:55:31.613Z,14.10
2017-09-18T19:57:59.123Z,13.60
2017-09-18T20:00:28.091Z,9.30
2017-09-18T20:02:55.539Z,11.20
2017-09-18T20:05:23.007Z,12.23
2017-09-18T20:07:50.421Z,8.57
2017-09-18T20:10:17.926Z,10.47
2017-09-18T20:12:45.336Z,10.83
2017-09-18T20:15:12.783Z,9.57
2017-09-18T20:17:40.257Z,8.77
2017-09-18T20:20:07.705Z,7.30
2017-09-18T20:22:35.171Z,10.00
2017-09-18T20:25:02.653Z,16.63
2017-09-18T20:27:30.061Z,9.60
2017-09-18T20:29:58.409Z,11.63
2017-09-18T20:32:25.907Z,15.33
2017-09-18T20:34:53.410Z,9.70
2017-09-18T20:37:20.874Z,9.60
2017-09-18T20:39:48.286Z,10.07
2017-09-18T20:42:16.254Z,14.57
2017-09-18T20:44:43.771Z,18.03
2017-09-18T20:47:11.988Z,15.30
2017-09-18T20:49:39.402Z,15.40
2017-09-18T20:52:07.603Z,15.00
2017-09-18T20:54:35.060Z,13.80
2017-09-18T20:57:02.463Z,10.70
2017-09-18T20:59:30.861Z,10.10
2017-09-18T21:01:58.287Z,10.70
2017-09-18T21:04:25.712Z,11.13
2017-09-18T21:06:53.127Z,11.30
2017-09-18T21:09:21.307Z,10.30
2017-09-18T21:11:49.488Z,14.30
2017-09-18T21:14:17.583Z,11.03
2017-09-18T21:16:44.990Z,12.10
2017-09-18T21:19:13.247Z,10.87
2017-09-18T21:21:40.670Z,12.43
2017-09-18T21:24:08.088Z,11.00
2017-09-18T21:26:36.273Z,12.30
2017-09-18T21:29:03.691Z,15.13
2017-09-18T21:31:32.615Z,11.67
2017-09-18T21:34:00.817Z,10.20
2017-09-18T21:36:28.233Z,13.13
2017-09-18T21:38:56.410Z,10.67
2017-09-18T21:41:24.591Z,14.53
2017-09-18T21:43:52.799Z,12.77
2017-09-18T21:46:20.250Z,12.10
2017-09-18T21:48:47.668Z,12.43
2017-09-18T21:51:15.846Z,10.83
2017-09-18T21:53:44.031Z,13.00
2017-09-18T21:56:11.451Z,11.60
2017-09-18T21:58:39.630Z,12.53
2017-09-18T22:01:07.811Z,12.80
2017-09-18T22:03:35.991Z,15.07
2017-09-18T22:06:04.202Z,22.83
2017-09-18T22:08:31.620Z,14.37
2017-09-18T22:10:59.803Z,16.10
2017-09-18T22:13:27.567Z,15.30
2017-09-18T22:15:55.755Z,17.27
2017-09-18T22:18:23.167Z,13.07
2017-09-18T22:20:55.922Z,12.97
2017-09-18T22:23:23.371Z,17.47
2017-09-18T22:25:50.791Z,13.87
2017-09-18T22:28:18.203Z,14.03
2017-09-18T22:30:45.635Z,13.60
2017-09-18T22:33:13.057Z,13.90
2017-09-18T22:35:40.470Z,15.03
2017-09-18T22:38:08.663Z,16.37
2017-09-18T22:40:36.174Z,14.77
2017-09-18T22:43:03.591Z,15.10
2017-09-18T22:45:31.779Z,14.50
2017-09-18T22:47:59.195Z,22.80
2017-09-18T22:50:26.631Z,19.00
2017-09-18T22:52:54.034Z,17.23
2017-09-18T22:55:22.222Z,17.97
2017-09-18T22:57:49.647Z,16.90
2017-09-18T23:00:17.199Z,22.10
2017-09-18T23:02:44.715Z,20.50
2017-09-18T23:05:12.136Z,18.50
2017-09-18T23:07:40.328Z,16.30
2017-09-18T23:10:07.739Z,16.60
2017-09-18T23:12:35.175Z,17.70
2017-09-18T23:15:02.591Z,17.13
2017-09-18T23:17:30.011Z,17.93
2017-09-18T23:19:58.199Z,15.50
2017-09-18T23:22:26.379Z,20.73
2017-09-18T23:24:54.611Z,21.80
2017-09-18T23:27:22.027Z,16.93
2017-09-18T23:29:49.447Z,15.67
2017-09-18T23:32:17.634Z,16.47
2017-09-18T23:34:45.810Z,15.93
2017-09-18T23:37:14.018Z,14.50
2017-09-18T23:39:41.435Z,21.30
2017-09-18T23:42:09.631Z,16.37
2017-09-18T23:44:37.047Z,18.13
2017-09-18T23:47:05.287Z,16.40
2017-09-18T23:49:32.694Z,17.20
2017-09-18T23:52:00.886Z,16.90
2017-09-18T23:54:28.312Z,17.50
2017-09-18T23:56:55.732Z,17.40
2017-09-18T23:59:23.152Z,20.43
